Tiempo atmosférico en la estación meteorológica de Coll De Nargó, Lleida (603 m.)



Fecha
DESCASC
Temp. máxima en grados centígrados (hora)
DESCASC
Temp. mínima en grados centígrados (hora)
DESCASC
Temp. media en grados centígrados
DESCASC
Racha de viento máxima en m/sg (hora)
DESCASC
Velocidad máxima media en intervalos de 10 minutos(hora)
DESCASC
Precipitaciones diarias en mm
DESCASC
Precipitaciones de 00:00 a 06:00 en mm
DESCASC
Precipitaciones de 06:00 a 12:00 en mm
DESCASC
Precipitaciones de 12:00 a 18:00 en mm
DESCASC
Precipitaciones de 18:00 a 24:00 en mm
DESCASC
29-10-2020 18.7 (15:00) 4.2 (07:00) 11.5 11.39 (14:30) 8.61 (13:30) 0.2 0 0.2 0 0
28-10-2020 21.7 (13:40) 3.7 (06:20) 12.7 10 (17:30) 8.06 (17:30) 0 0 0 0 0
27-10-2020 14.5 (15:40) 1 (00:00) 7.8 11.11 (14:10) 8.61 (14:10) 0 0 0 0 0
26-10-2020 17.9 (14:30) 3.1 (00:00) 10.5 9.17 (00:30) 5.83 (00:30) 3.4 2.4 1 0 0
25-10-2020 20.8 (14:10) 3.4 (00:00) 12.1 8.61 (14:20) 5.28 (13:30) 0 0 0 0 0
24-10-2020 17.6 (15:40) 4 (00:00) 10.8 11.11 (16:30) 8.33 (15:10) 0 0 0 0 0
23-10-2020 20.4 (15:30) 7.9 (00:00) 14.1 10 (12:50) 7.22 (13:20) 2 2 0 0 0
22-10-2020 15.6 (00:00) 11.4 (00:00) 13.5 4.44 (04:50) 2.78 (04:50) 16.6 0.8 5.2 3 7.6
21-10-2020 24.4 (13:00) 12.4 (00:00) 18.4 13.33 (01:30) 6.39 (20:10) 0 0 0 0 0
20-10-2020 15.5 (15:50) 8.7 (00:00) 12.1 5.28 (22:20) 2.78 (17:20) 0 0 0 0 0
19-10-2020 21.1 (15:10) 1.5 (00:00) 11.3 8.61 (16:20) 6.39 (14:40) 0 0 0 0 0
18-10-2020 19.3 (15:50) 0.7 (00:00) 10 10 (17:10) 7.78 (17:20) 0 0 0 0 0
17-10-2020 16.7 (15:20) 0.1 (00:00) 8.4 11.67 (17:10) 9.17 (14:20) 0 0 0 0 0
16-10-2020 16.1 (15:10) 0.1 (00:00) 8.1 13.06 (13:40) 11.39 (13:30) 0 0 0 0 0
15-10-2020 17.2 (14:40) 0.2 (00:00) 8.7 12.5 (19:50) 7.5 (15:50) 0 0 0 0 0
14-10-2020 17.3 (15:50) 2.6 (00:00) 9.9 13.61 (16:20) 9.44 (13:50) 4.6 0 0 4.6 0
13-10-2020 20.6 (15:50) 4.2 (00:00) 12.4 11.11 (22:20) 8.61 (14:20) 0 0 0 0 0
12-10-2020 19.9 (15:10) 4.5 (00:00) 12.2 13.06 (01:30) 6.67 (15:20) 0 0 0 0 0
11-10-2020 18.2 (14:10) 5.7 (00:00) 12 17.5 (18:00) 10.28 (17:50) 0 0 0 0 0
10-10-2020 17.4 (14:20) 9.5 (00:00) 13.4 17.78 (14:20) 15 (14:10) 2.8 0 0 0 2.8
09-10-2020 26.5 (15:30) 9.8 (00:00) 18.2 10 (13:40) 7.78 (13:50) 0 0 0 0 0
08-10-2020 23.3 (17:00) 8.4 (00:00) 15.8 11.39 (14:20) 10 (15:40) 0 0 0 0 0
07-10-2020 23.6 (15:40) 8.6 (00:00) 16.1 11.67 (14:00) 9.72 (14:10) 0 0 0 0 0
06-10-2020 23.5 (15:30) 4.3 (00:00) 13.9 10.28 (14:50) 8.06 (14:20) 0 0 0 0 0
05-10-2020 21.2 (16:40) 2.9 (00:00) 12.1 10 (14:00) 7.5 (13:50) 0 0 0 0 0
04-10-2020 19.6 (15:20) 4 (00:00) 11.8 10.83 (12:20) 6.11 (12:30) 0 0 0 0 0
03-10-2020 14.5 (15:40) 4.4 (00:00) 9.5 10.28 (17:50) 4.72 (15:50) 0.2 0 0.2 0 0
02-10-2020 16.3 (00:20) 4.6 (00:00) 10.4 13.33 (11:30) 8.61 (11:20) 21.6 0 11.8 9 0.8
01-10-2020 25.9 (15:10) 7.4 (00:00) 16.6 11.11 (13:40) 8.33 (13:40) 0 0 0 0 0

Gráficas

Temp. máximas Temp. mínimas Temp. medias Precipitaciones Rachas de viento máximas Velocidades máximas media en intervalos de 10 minutos

Datos horarios

Fecha y hora oficial Temperatura (ºC) Velocidad del viento (km/h) Dirección del viento Racha (km/h) Dirección de racha Precipitación (mm) Presión (hPa) Tendencia (hPa) Humedad (%)
2020-10-30 23:00:00 7.6 5 Norte 9 Norte 0 -- -- 98
2020-10-30 22:00:00 8.3 6 Norte 10 Norte 0 -- -- 95
2020-10-30 21:00:00 9 8 Norte 9 Nordeste 0 -- -- 93
2020-10-30 20:00:00 10.8 6 Norte 9 Norte 0 -- -- 87
2020-10-30 19:00:00 13.2 2 Nordeste 9 Nordeste 0 -- -- 76
2020-10-30 18:00:00 16.2 3 Sudeste 34 Sur 0 -- -- 63
2020-10-30 17:00:00 18.2 27 Sur 37 Sur 0 -- -- 55
2020-10-30 16:00:00 22.2 22 Sur 32 Sur 0 -- -- 42
2020-10-30 15:00:00 24 17 Sur 28 Sudeste 0 -- -- 39
2020-10-30 14:00:00 25.3 3 Norte 5 Nordeste 0 -- -- 36
2020-10-30 13:00:00 22.8 3 Norte 8 Norte 0 -- -- 43
2020-10-30 12:00:00 20.7 6 Nordeste 9 Nordeste 0 -- -- 47
2020-10-30 11:00:00 16.9 5 Nordeste 10 Nordeste 0 -- -- 60
2020-10-30 10:00:00 9.6 3 Norte 11 Nordeste 0 -- -- 99
2020-10-30 09:00:00 6 6 Norte 17 Norte 0 -- -- 100
2020-10-30 08:00:00 4.9 6 Norte 21 Norte 0 -- -- 100
2020-10-30 07:00:00 4.9 8 Norte 13 Norte 0 -- -- 100
2020-10-30 06:00:00 5.7 7 Norte 9 Nordeste 0 -- -- 100
2020-10-30 05:00:00 6.4 4 Norte 9 Norte 0 -- -- 100
2020-10-30 04:00:00 5.7 6 Norte 9 Norte 0 -- -- 100
2020-10-30 03:00:00 6.2 5 Norte 9 Norte 0 -- -- 100
2020-10-30 02:00:00 6.7 5 Norte 7 Norte 0 -- -- 99
2020-10-30 01:00:00 7.1 4 Norte 8 Norte 0 -- -- 99
2020-10-30 00:00:00 7.4 4 Norte 9 Norte 0 -- -- 99
2020-10-29 23:00:00 7.6 7 Norte 10 Norte 0 -- -- 98
2020-10-29 22:00:00 7.9 7 Norte 9 Norte 0 -- -- 97
2020-10-29 21:00:00 8.6 6 Norte 8 Norte 0 -- -- 96
2020-10-29 20:00:00 10.2 4 Norte 5 Norte 0 -- -- 90
2020-10-29 19:00:00 12.1 2 Nordeste 15 Sur 0 -- -- 83
2020-10-29 18:00:00 14 12 Sur 30 Sur 0 -- -- 74
2020-10-29 17:00:00 15.7 24 Sur 37 Sur 0 -- -- 67
2020-10-29 16:00:00 17.4 28 Sur 41 Sur 0 -- -- 62
2020-10-29 15:00:00 18.7 30 Sur 41 Sur 0 -- -- 58
2020-10-29 14:00:00 18.4 27 Sur 39 Sur 0 -- -- 60
2020-10-29 13:00:00 17.6 25 Sur 34 Sur 0 -- -- 61
2020-10-29 12:00:00 17.7 13 Sur 26 Sur 0 -- -- 59
2020-10-29 11:00:00 14.7 5 Norte 7 Nordeste 0 -- -- 80
2020-10-29 10:00:00 8.4 4 Norte 11 Norte 0.2 -- -- 99
2020-10-29 09:00:00 4.8 5 Norte 8 Norte 0 -- -- 100
2020-10-29 08:00:00 4.8 4 Norte 7 Nordeste 0 -- -- 100
2020-10-29 07:00:00 4.2 5 Norte 8 Norte 0 -- -- 100
2020-10-29 06:00:00 5.3 4 Norte 9 Norte 0 -- -- 100
2020-10-29 05:00:00 4.9 4 Norte 8 Nordeste 0 -- -- 100
2020-10-29 04:00:00 6.1 3 Noroeste 8 Nordeste 0 -- -- 100
2020-10-29 03:00:00 5.8 5 Norte 8 Norte 0 -- -- 99
2020-10-29 02:00:00 6.8 3 Noroeste 11 Norte 0 -- -- 100
2020-10-29 01:00:00 6.5 4 Norte 10 Norte 0 -- -- 99
2020-10-29 00:00:00 7.6 2 Nordeste 8 Norte 0 -- -- 99
2020-10-28 23:00:00 7 5 Norte 8 Nordeste 0 -- -- 97
2020-10-28 22:00:00 7.9 3 Norte 7 Norte 0 -- -- 95
2020-10-28 21:00:00 9.1 4 Nordeste 7 Nordeste 0 -- -- 90
2020-10-28 20:00:00 11.1 3 Este 12 Sur 0 -- -- 82
2020-10-28 19:00:00 13.1 11 Sur 36 Sur 0 -- -- 73
2020-10-28 18:00:00 14.8 24 Sur 36 Sur 0 -- -- 67
2020-10-28 17:00:00 15.9 25 Sur 32 Sur 0 -- -- 60
2020-10-28 16:00:00 19.5 19 Sur 27 Sudeste 0 -- -- 49
2020-10-28 15:00:00 19.4 23 Sur 28 Sur 0 -- -- 49
2020-10-28 14:00:00 20.2 8 Sudeste 18 Sur 0 -- -- 45
2020-10-28 13:00:00 19.5 3 Norte 7 Nordeste 0 -- -- 46
2020-10-28 12:00:00 16.1 5 Nordeste 9 Nordeste 0 -- -- 55
2020-10-28 11:00:00 14.9 3 Norte 9 Norte 0 -- -- 58
2020-10-28 10:00:00 10.6 6 Norte 11 Norte 0 -- -- 76
2020-10-28 09:00:00 5.1 4 Norte 7 Nordeste 0 -- -- 96
2020-10-28 08:00:00 4.4 3 Norte 8 Nordeste 0 -- -- 96
2020-10-28 07:00:00 3.8 6 Norte 9 Norte 0 -- -- 97
2020-10-28 06:00:00 4 7 Norte 10 Norte 0 -- -- 97
2020-10-28 05:00:00 4.6 4 Norte 10 Norte 0 -- -- 96
2020-10-28 04:00:00 4.6 5 Norte 14 Norte 0 -- -- 96
2020-10-28 03:00:00 4.9 6 Norte 14 Norte 0 -- -- 94
2020-10-28 02:00:00 4.9 7 Norte 10 Norte 0 -- -- 93
2020-10-28 01:00:00 5.4 5 Nordeste 12 Norte 0 -- -- 92
2020-10-28 00:00:00 5.6 8 Norte 11 Norte 0 -- -- 92
2020-10-27 23:00:00 5.6 8 Nordeste 10 Norte 0 -- -- 92
2020-10-27 22:00:00 6.3 7 Norte 11 Norte 0 -- -- 89
2020-10-27 21:00:00 7.1 4 Este 12 Noroeste 0 -- -- 86
2020-10-27 20:00:00 6.8 9 Norte 12 Norte 0 -- -- 87
2020-10-27 19:00:00 8.8 3 Norte 10 Sur 0 -- -- 76
2020-10-27 18:00:00 10.8 6 Sur 21 Sur 0 -- -- 69
2020-10-27 17:00:00 11.7 16 Sur 27 Sudeste 0 -- -- 68
2020-10-27 16:00:00 13.3 22 Sudeste 36 Sur 0 -- -- 63
2020-10-27 15:00:00 13.7 28 Sur 40 Sur 0 -- -- 62
2020-10-27 14:00:00 14.2 30 Sur 38 Sudeste 0 -- -- 60
2020-10-27 13:00:00 11.9 22 Sur 31 Sur 0 -- -- 61
2020-10-27 12:00:00 9.6 3 Sudeste 8 Norte 0 -- -- 64
2020-10-27 11:00:00 8.6 4 Nordeste 8 Noroeste 0 -- -- 80
2020-10-27 10:00:00 4 3 Norte 7 Norte 0 -- -- 97
2020-10-27 09:00:00 1.4 6 Norte 7 Norte 0 -- -- 99
2020-10-27 08:00:00 1.1 5 Norte 6 Norte 0 -- -- 99
2020-10-27 07:00:00 1.2 2 Norte 5 Nordeste 0 -- -- 99
2020-10-27 06:00:00 1.6 0 Calma 5 Norte 0 -- -- 99
2020-10-27 05:00:00 1.5 3 Norte 6 Norte 0 -- -- 98
2020-10-27 04:00:00 1.6 4 Norte 7 Nordeste 0 -- -- 99
2020-10-27 03:00:00 1.6 5 Norte 8 Norte 0 -- -- 99
2020-10-27 02:00:00 1.8 5 Norte 8 Norte 0 -- -- 97
2020-10-27 01:00:00 2.5 2 Oeste 8 Norte 0 -- -- 98
2020-10-27 00:00:00 3.1 6 Norte 9 Nordeste 0 -- -- 96
2020-10-26 23:00:00 3.9 9 Nordeste 14 Nordeste 0 -- -- 93
2020-10-26 22:00:00 4.9 6 Norte 8 Nordeste 0 -- -- 91
2020-10-26 21:00:00 5.8 5 Norte 11 Nordeste 0 -- -- 88
2020-10-26 20:00:00 7.7 3 Oeste 10 Nordeste 0 -- -- 81
2020-10-26 19:00:00 9.9 4 Nordeste 12 Oeste 0 -- -- 69
2020-10-26 18:00:00 11.7 5 Oeste 21 Sudoeste 0 -- -- 60
2020-10-26 17:00:00 12.9 9 Sudoeste 23 Sur 0 -- -- 57
2020-10-26 16:00:00 14.8 4 Sur 26 Oeste 0 -- -- 52
2020-10-26 15:00:00 15.3 8 Norte 16 Norte 0 -- -- 49
2020-10-26 14:00:00 15.1 7 Nordeste 18 Sudoeste 0 -- -- 53
2020-10-26 13:00:00 13.5 8 Sur 24 Sur 0 -- -- 64
2020-10-26 12:00:00 14.4 15 Sur 22 Sur 0 -- -- 70
2020-10-26 11:00:00 14.4 8 Sur 15 Norte 0 -- -- 71
2020-10-26 10:00:00 11.7 10 Nordeste 25 Norte 0 -- -- 80
2020-10-26 09:00:00 7.7 12 Norte 20 Norte 0.4 -- -- 98
2020-10-26 08:00:00 7.8 8 Nordeste 14 Nordeste 0.6 -- -- 98
2020-10-26 07:00:00 7.9 3 Nordeste 14 Sur 0 -- -- 97
2020-10-26 06:00:00 8.5 9 Sur 26 Sur 0 -- -- 97
2020-10-26 05:00:00 8.6 4 Sudeste 24 Sur 0 -- -- 96
2020-10-26 04:00:00 8.9 14 Sur 27 Sur 0 -- -- 95
2020-10-26 03:00:00 9.2 0 Calma 12 Oeste 0 -- -- 96
2020-10-26 02:00:00 9.9 2 Norte 17 Sur 1 -- -- 89
2020-10-26 01:00:00 10.6 17 Sur 33 Sur 1.4 -- -- 95
2020-10-26 00:00:00 12 8 Sudoeste 12 Sudoeste 0 -- -- 81
2020-10-25 23:00:00 11.6 4 Nordeste 8 Este 0 -- -- 80
2020-10-25 22:00:00 12 3 Norte 7 Este 0 -- -- 77
2020-10-25 21:00:00 12.6 2 Sudoeste 9 Sur 0 -- -- 74
2020-10-25 20:00:00 13 8 Sur 20 Sur 0 -- -- 73
2020-10-25 19:00:00 13.5 8 Sur 15 Sur 0 -- -- 70
2020-10-25 18:00:00 14.3 6 Sur 18 Sudeste 0 -- -- 64
2020-10-25 17:00:00 15.6 8 Sur 23 Sur 0 -- -- 56
2020-10-25 16:00:00 17 14 Sur 27 Sur 0 -- -- 50
2020-10-25 15:00:00 19.4 16 Sur 31 Sur 0 -- -- 44
2020-10-25 14:00:00 20.2 15 Sur 30 Sur 0 -- -- 42
2020-10-25 13:00:00 20.1 14 Sur 24 Sur 0 -- -- 48
2020-10-25 12:00:00 17.9 3 Norte 13 Norte 0 -- -- 56
2020-10-25 11:00:00 12.6 9 Norte 14 Nordeste 0 -- -- 77
2020-10-25 10:00:00 7.9 5 Norte 8 Nordeste 0 -- -- 99
2020-10-25 09:00:00 4.7 5 Norte 9 Noroeste 0 -- -- 100
2020-10-25 08:00:00 4.2 4 Norte 8 Noroeste 0 -- -- 100
2020-10-25 07:00:00 3.4 5 Norte 9 Noroeste 0 -- -- 100
2020-10-25 06:00:00 3.8 4 Norte 8 Norte 0 -- -- 100
2020-10-25 05:00:00 4.2 4 Norte 6 Nordeste 0 -- -- 100
2020-10-25 04:00:00 5 4 Norte 8 Norte 0 -- -- 100
2020-10-25 03:00:00 5.4 3 Norte 8 Norte 0 -- -- 99
2020-10-25 02:00:00 5.7 6 Norte 10 Norte 0 -- -- 99
2020-10-25 01:00:00 6 3 Norte 6 Norte 0 -- -- 98
2020-10-25 00:00:00 7 4 Norte 9 Norte 0 -- -- 97
2020-10-24 23:00:00 7 6 Norte 9 Norte 0 -- -- 95
2020-10-24 22:00:00 7.6 8 Norte 11 Norte 0 -- -- 94
2020-10-24 21:00:00 9.5 3 Norte 8 Sudoeste 0 -- -- 87
2020-10-24 20:00:00 11.9 6 Sur 22 Sur 0 -- -- 76
2020-10-24 19:00:00 13.5 13 Sur 32 Sur 0 -- -- 68
2020-10-24 18:00:00 15 23 Sur 33 Sur 0 -- -- 65
2020-10-24 17:00:00 16.9 27 Sur 40 Sur 0 -- -- 60
2020-10-24 16:00:00 17.2 28 Sur 37 Sur 0 -- -- 59
2020-10-24 15:00:00 17.1 29 Sur 37 Sur 0 -- -- 61
2020-10-24 14:00:00 17.2 21 Sur 30 Sur 0 -- -- 60
2020-10-24 13:00:00 16.1 17 Sur 25 Sur 0 -- -- 63
2020-10-24 12:00:00 13.5 8 Sur 12 Sur 0 -- -- 67
2020-10-24 11:00:00 9.5 3 Norte 6 Nordeste 0 -- -- 100
2020-10-24 10:00:00 5.1 2 Noroeste 9 Norte 0 -- -- 100
2020-10-24 09:00:00 4.3 5 Norte 9 Norte 0 -- -- 100
2020-10-24 08:00:00 4.7 3 Norte 8 Norte 0 -- -- 100
2020-10-24 07:00:00 4.9 5 Norte 9 Nordeste 0 -- -- 100
2020-10-24 06:00:00 4.8 6 Nordeste 8 Nordeste 0 -- -- 100
2020-10-24 05:00:00 4.9 5 Norte 7 Norte 0 -- -- 99
2020-10-24 04:00:00 5.6 3 Norte 6 Norte 0 -- -- 100
2020-10-24 03:00:00 6.1 3 Norte 7 Nordeste 0 -- -- 99
2020-10-24 02:00:00 6.4 5 Norte 8 Norte 0 -- -- 98
2020-10-24 01:00:00 7 4 Norte 6 Nordeste 0 -- -- 97
2020-10-24 00:00:00 7.9 5 Norte 8 Nordeste 0 -- -- 94
2020-10-23 23:00:00 8.3 5 Nordeste 12 Norte 0 -- -- 94
2020-10-23 22:00:00 9.1 8 Norte 13 Nordeste 0 -- -- 89
2020-10-23 21:00:00 11.7 3 Norte 19 Norte 0 -- -- 75
2020-10-23 20:00:00 13.5 5 Nordeste 18 Sur 0 -- -- 68
2020-10-23 19:00:00 14.5 8 Sur 21 Sudeste 0 -- -- 64
2020-10-23 18:00:00 16.3 10 Sur 25 Sur 0 -- -- 57
2020-10-23 17:00:00 19.3 17 Sur 25 Sur 0 -- -- 50
2020-10-23 16:00:00 18.5 8 Sur 21 Sur 0 -- -- 57
2020-10-23 15:00:00 18.4 14 Sudeste 23 Sur 0 -- -- 66
2020-10-23 14:00:00 15.3 15 Sur 33 Sur 0 -- -- 90
2020-10-23 13:00:00 13.9 25 Sur 36 Sur 0 -- -- 96
2020-10-23 12:00:00 15.5 9 Sur 16 Sur 0 -- -- 97
2020-10-23 11:00:00 13.2 0 Calma 5 Nordeste 0 -- -- 99
2020-10-23 10:00:00 12.2 3 Norte 5 Norte 0 -- -- 100
2020-10-23 09:00:00 12 0 Calma 3 Norte 0 -- -- 100
2020-10-23 08:00:00 11.5 0 Calma 6 Nordeste 0 -- -- 100
2020-10-23 07:00:00 11.9 3 Norte 5 Norte 0 -- -- 100
2020-10-23 06:00:00 12.2 0 Calma 3 Norte 0 -- -- 100
2020-10-23 05:00:00 12.3 0 Calma 2 Nordeste 0 -- -- 100
2020-10-23 04:00:00 12.3 0 Calma 3 Sudeste 0.4 -- -- 100
2020-10-23 03:00:00 12.4 0 Calma 5 Nordeste 1.2 -- -- 100
2020-10-23 02:00:00 12.3 3 Norte 6 Norte 0.2 -- -- 100
2020-10-23 01:00:00 12.3 4 Norte 5 Nordeste 0.2 -- -- 100
2020-10-23 00:00:00 12.4 2 Norte 5 Norte 0.8 -- -- 100
2020-10-22 23:00:00 12.6 3 Norte 6 Nordeste 1 -- -- 100
2020-10-22 22:00:00 12.7 0 Calma 4 Sur 1 -- -- 100
2020-10-22 21:00:00 12.9 0 Calma 5 Sur 1.2 -- -- 99
2020-10-22 20:00:00 13.2 0 Calma 5 Nordeste 1.2 -- -- 99
2020-10-22 19:00:00 13.3 2 Sur 9 Norte 2.4 -- -- 99
2020-10-22 18:00:00 13.4 4 Norte 7 Norte 1.2 -- -- 99
2020-10-22 17:00:00 13.9 3 Norte 9 Norte 0.8 -- -- 98
2020-10-22 16:00:00 14.3 4 Norte 8 Nordeste 0.6 -- -- 98
2020-10-22 15:00:00 14.4 4 Nordeste 8 Norte 0.4 -- -- 98
2020-10-22 14:00:00 13.9 6 Norte 10 Norte 0 -- -- 98
2020-10-22 13:00:00 13.6 6 Norte 8 Noroeste 0 -- -- 99
2020-10-22 12:00:00 12.7 4 Norte 10 Norte 0.2 -- -- 99
2020-10-22 11:00:00 12.2 3 Norte 8 Norte 0.4 -- -- 99
2020-10-22 10:00:00 12 5 Norte 8 Nordeste 1.4 -- -- 99
2020-10-22 09:00:00 11.7 4 Norte 10 Norte 0.6 -- -- 98
2020-10-22 08:00:00 11.8 4 Noroeste 8 Noroeste 0.8 -- -- 98
2020-10-22 07:00:00 11.6 4 Noroeste 9 Noroeste 1.8 -- -- 97
2020-10-22 06:00:00 11.7 2 Norte 10 Oeste 0.4 -- -- 96
2020-10-22 05:00:00 11.6 5 Sudeste 16 Noroeste 0.4 -- -- 95
2020-10-22 04:00:00 12.2 4 Norte 9 Norte 0 -- -- 87
2020-10-22 03:00:00 11.8 6 Norte 10 Norte 0 -- -- 91
2020-10-22 02:00:00 12.6 5 Norte 9 Norte 0 -- -- 88
2020-10-22 01:00:00 13.8 4 Norte 6 Norte 0 -- -- 83
2020-10-22 00:00:00 15.6 2 Nordeste 9 Sur 0 -- -- 76
2020-10-21 23:00:00 16.8 7 Sur 17 Sur 0 -- -- 72
2020-10-21 22:00:00 17.9 5 Sur 23 Sur 0 -- -- 69
2020-10-21 21:00:00 18.9 11 Sur 41 Sur 0 -- -- 65
2020-10-21 20:00:00 19.4 16 Sur 33 Sur 0 -- -- 63
2020-10-21 19:00:00 19.9 4 Sudoeste 18 Sur 0 -- -- 64
2020-10-21 18:00:00 20.9 8 Sur 27 Sudoeste 0 -- -- 58
2020-10-21 17:00:00 22.2 14 Sudoeste 27 Sur 0 -- -- 54
2020-10-21 16:00:00 22.2 21 Sudoeste 34 Sudoeste 0 -- -- 54
2020-10-21 15:00:00 23.8 20 Sudoeste 34 Sudoeste 0 -- -- 49
2020-10-21 14:00:00 24.1 10 Sur 24 Sur 0 -- -- 50
2020-10-21 13:00:00 24.4 6 Sudeste 15 Sudeste 0 -- -- 51
2020-10-21 12:00:00 18.8 4 Sudoeste 13 Sudoeste 0 -- -- 70
2020-10-21 11:00:00 17.5 3 Sudeste 16 Sur 0 -- -- 73
2020-10-21 10:00:00 17 4 Sur 17 Sudeste 0 -- -- 73
2020-10-21 09:00:00 16.4 8 Sudeste 22 Sur 0 -- -- 75
2020-10-21 08:00:00 15.7 14 Sur 21 Sur 0 -- -- 80
2020-10-21 07:00:00 16.1 6 Sudeste 17 Sudeste 0 -- -- 71
2020-10-21 06:00:00 15.5 3 Nordeste 20 Sudoeste 0 -- -- 70
2020-10-21 05:00:00 15.2 3 Norte 8 Nordeste 0 -- -- 69
2020-10-21 04:00:00 14.9 6 Nordeste 27 Sur 0 -- -- 72
2020-10-21 03:00:00 16.7 10 Sur 39 Sudoeste 0 -- -- 65
2020-10-21 02:00:00 16.4 21 Sudoeste 48 Sudeste 0 -- -- 69
2020-10-21 01:00:00 16.3 21 Sur 34 Sur 0 -- -- 68
2020-10-21 00:00:00 12.7 4 Este 18 Sudoeste 0 -- -- 82
2020-10-20 23:00:00 11.9 5 Nordeste 19 Sur 0 -- -- 84
2020-10-20 22:00:00 11.7 4 Norte 15 Nordeste 0 -- -- 85
2020-10-20 21:00:00 11.4 5 Norte 13 Norte 0 -- -- 90
2020-10-20 20:00:00 12.5 6 Norte 10 Norte 0 -- -- 84
2020-10-20 19:00:00 12.6 3 Norte 8 Noroeste 0 -- -- 84
2020-10-20 18:00:00 13.1 3 Nordeste 17 Nordeste 0 -- -- 83
2020-10-20 17:00:00 14.3 5 Nordeste 11 Norte 0 -- -- 77
2020-10-20 16:00:00 15.2 5 Nordeste 7 Norte 0 -- -- 69
2020-10-20 15:00:00 14.1 5 Norte 9 Norte 0 -- -- 72
2020-10-20 14:00:00 14.5 5 Nordeste 10 Nordeste 0 -- -- 70
2020-10-20 13:00:00 14 3 Nordeste 8 Nordeste 0 -- -- 68
2020-10-20 12:00:00 11.9 7 Norte 11 Norte 0 -- -- 75
2020-10-20 11:00:00 11 3 Norte 7 Norte 0 -- -- 79
2020-10-20 10:00:00 10 6 Norte 9 Norte 0 -- -- 83
2020-10-20 09:00:00 9.9 5 Norte 9 Nordeste 0 -- -- 83
2020-10-20 08:00:00 9.7 2 Norte 6 Noroeste 0 -- -- 85
2020-10-20 07:00:00 9.8 0 Calma 9 Norte 0 -- -- 84
2020-10-20 06:00:00 9.6 5 Norte 7 Norte 0 -- -- 86
2020-10-20 05:00:00 9.8 0 Calma 6 Nordeste 0 -- -- 82
2020-10-20 04:00:00 9.5 2 Noroeste 10 Norte 0 -- -- 86
2020-10-20 03:00:00 8.9 5 Norte 9 Norte 0 -- -- 90
2020-10-20 02:00:00 9.3 3 Norte 6 Nordeste 0 -- -- 91
2020-10-20 01:00:00 9.3 3 Nordeste 4 Norte 0 -- -- 91
2020-10-20 00:00:00 9.7 0 Calma 6 Norte 0 -- -- 90
2020-10-19 23:00:00 9.3 4 Norte 9 Norte 0 -- -- 90
2020-10-19 22:00:00 10.7 5 Nordeste 23 Sur 0 -- -- 84
2020-10-19 21:00:00 13.4 17 Sur 24 Sur 0 -- -- 74
2020-10-19 20:00:00 14.6 18 Sur 25 Sur 0 -- -- 70
2020-10-19 19:00:00 15.7 14 Sur 23 Sudeste 0 -- -- 67
2020-10-19 18:00:00 17.3 13 Sur 30 Sur 0 -- -- 58
2020-10-19 17:00:00 20 17 Sur 31 Sudeste 0 -- -- 49
2020-10-19 16:00:00 19.1 21 Sur 30 Sur 0 -- -- 49
2020-10-19 15:00:00 20.9 22 Sur 30 Sur 0 -- -- 39
2020-10-19 14:00:00 20.8 16 Sur 26 Sur 0 -- -- 42
2020-10-19 13:00:00 17.1 5 Norte 8 Norte 0 -- -- 45
2020-10-19 12:00:00 12.9 5 Norte 10 Norte 0 -- -- 57
2020-10-19 11:00:00 9.1 4 Norte 8 Nordeste 0 -- -- 72
2020-10-19 10:00:00 3 4 Norte 6 Norte 0 -- -- 97
2020-10-19 09:00:00 2 4 Norte 8 Norte 0 -- -- 97
2020-10-19 08:00:00 2.4 4 Norte 9 Norte 0 -- -- 99
2020-10-19 07:00:00 1.7 5 Norte 8 Norte 0 -- -- 97
2020-10-19 06:00:00 2.9 4 Noroeste 9 Norte 0 -- -- 99
2020-10-19 05:00:00 2.8 6 Norte 8 Norte 0 -- -- 95
2020-10-19 04:00:00 3.9 4 Norte 12 Noroeste 0 -- -- 94
2020-10-19 03:00:00 4.3 4 Norte 8 Norte 0 -- -- 93
2020-10-19 02:00:00 4 6 Norte 9 Norte 0 -- -- 95
2020-10-19 01:00:00 5.1 4 Norte 8 Norte 0 -- -- 91
2020-10-19 00:00:00 5.1 6 Norte 8 Norte 0 -- -- 89
2020-10-18 23:00:00 7 3 Norte 6 Norte 0 -- -- 79
2020-10-18 22:00:00 7.4 6 Norte 8 Norte 0 -- -- 79
2020-10-18 21:00:00 9.3 4 Norte 9 Nordeste 0 -- -- 70
2020-10-18 20:00:00 12.1 3 Sudeste 21 Sur 0 -- -- 59
2020-10-18 19:00:00 13.9 17 Sur 30 Sur 0 -- -- 53
2020-10-18 18:00:00 16.6 24 Sur 36 Sur 0 -- -- 45
2020-10-18 17:00:00 18.6 25 Sur 33 Sur 0 -- -- 40
2020-10-18 16:00:00 18.9 24 Sur 35 Sur 0 -- -- 40
2020-10-18 15:00:00 18.5 26 Sur 32 Sur 0 -- -- 42
2020-10-18 14:00:00 16.8 9 Sur 21 Sur 0 -- -- 44
2020-10-18 13:00:00 17 3 Nordeste 8 Norte 0 -- -- 42
2020-10-18 12:00:00 15.5 4 Nordeste 8 Norte 0 -- -- 47
2020-10-18 11:00:00 9.4 6 Nordeste 12 Nordeste 0 -- -- 69
2020-10-18 10:00:00 2 6 Norte 10 Norte 0 -- -- 98
2020-10-18 09:00:00 1.1 4 Nordeste 6 Noroeste 0 -- -- 99
2020-10-18 08:00:00 1.8 3 Norte 10 Norte 0 -- -- 98
2020-10-18 07:00:00 1.6 5 Norte 9 Norte 0 -- -- 96
2020-10-18 06:00:00 1.7 4 Norte 7 Norte 0 -- -- 98
2020-10-18 05:00:00 1.9 4 Norte 8 Norte 0 -- -- 96
2020-10-18 04:00:00 2.3 5 Norte 7 Norte 0 -- -- 97
2020-10-18 03:00:00 2.9 5 Norte 9 Norte 0 -- -- 96
2020-10-18 02:00:00 3.1 4 Norte 9 Norte 0 -- -- 96
2020-10-18 01:00:00 3.4 6 Norte 9 Norte 0 -- -- 93
2020-10-18 00:00:00 4.3 5 Norte 8 Nordeste 0 -- -- 90
2020-10-17 23:00:00 5.2 6 Norte 8 Norte 0 -- -- 87
2020-10-17 22:00:00 7.2 0 Calma 6 Nordeste 0 -- -- 76
2020-10-17 21:00:00 9.6 3 Sur 24 Sur 0 -- -- 66
2020-10-17 20:00:00 11.2 19 Sur 35 Sur 0 -- -- 59
2020-10-17 19:00:00 12.2 28 Sur 40 Sur 0 -- -- 57
2020-10-17 18:00:00 14 32 Sur 42 Sur 0 -- -- 51
2020-10-17 17:00:00 15.6 31 Sur 41 Sur 0 -- -- 46
2020-10-17 16:00:00 16.2 30 Sur 40 Sur 0 -- -- 44
2020-10-17 15:00:00 16.6 32 Sur 41 Sur 0 -- -- 44
2020-10-17 14:00:00 15.8 30 Sur 36 Sur 0 -- -- 46
2020-10-17 13:00:00 15.3 7 Sur 15 Sur 0 -- -- 42
2020-10-17 12:00:00 14 5 Nordeste 10 Norte 0 -- -- 47
2020-10-17 11:00:00 8.7 5 Norte 8 Nordeste 0 -- -- 62
2020-10-17 10:00:00 1.6 3 Norte 6 Norte 0 -- -- 90
2020-10-17 09:00:00 0.8 2 Noroeste 6 Nordeste 0 -- -- 96
2020-10-17 08:00:00 0.1 3 Norte 9 Noroeste 0 -- -- 95
2020-10-17 07:00:00 0.8 3 Norte 6 Norte 0 -- -- 95
2020-10-17 06:00:00 0.9 3 Norte 6 Norte 0 -- -- 91
2020-10-17 05:00:00 0.8 4 Norte 8 Norte 0 -- -- 94
2020-10-17 04:00:00 1.1 5 Norte 8 Noroeste 0 -- -- 98
2020-10-17 03:00:00 1 5 Norte 6 Norte 0 -- -- 94
2020-10-17 02:00:00 1.3 5 Norte 8 Norte 0 -- -- 94
2020-10-17 01:00:00 1.8 6 Norte 8 Norte 0 -- -- 91
2020-10-17 00:00:00 3.1 4 Norte 6 Norte 0 -- -- 86
2020-10-16 23:00:00 4 3 Nordeste 6 Norte 0 -- -- 81
2020-10-16 22:00:00 5.3 3 Nordeste 5 Nordeste 0 -- -- 73
2020-10-16 21:00:00 7.7 0 Calma 12 Sur 0 -- -- 62
2020-10-16 20:00:00 9.3 8 Sur 27 Sur 0 -- -- 55
2020-10-16 19:00:00 10.8 22 Sur 32 Sur 0 -- -- 51
2020-10-16 18:00:00 13.5 26 Sur 36 Sudeste 0 -- -- 43
2020-10-16 17:00:00 15.2 23 Sur 37 Sur 0 -- -- 38
2020-10-16 16:00:00 15.7 23 Sur 37 Sur 0 -- -- 33
2020-10-16 15:00:00 15.7 29 Sur 41 Sur 0 -- -- 41
2020-10-16 14:00:00 14 35 Sur 47 Sur 0 -- -- 50
2020-10-16 13:00:00 11.6 35 Sur 42 Sur 0 -- -- 55
2020-10-16 12:00:00 10.3 21 Sur 25 Sur 0 -- -- 59
2020-10-16 11:00:00 7.9 9 Sur 24 Sur 0 -- -- 65
2020-10-16 10:00:00 3.1 14 Sur 21 Sur 0 -- -- 85
2020-10-16 09:00:00 3 2 Este 5 Norte 0 -- -- 63
2020-10-16 08:00:00 0.9 2 Nordeste 9 Nordeste 0 -- -- 76
2020-10-16 07:00:00 2.2 2 Nordeste 6 Noroeste 0 -- -- 67
2020-10-16 06:00:00 2.1 4 Norte 13 Norte 0 -- -- 67
2020-10-16 05:00:00 1.7 11 Norte 15 Norte 0 -- -- 70
2020-10-16 04:00:00 2.7 8 Nordeste 14 Norte 0 -- -- 68
2020-10-16 03:00:00 4.2 9 Norte 18 Norte 0 -- -- 60
2020-10-16 02:00:00 5.5 10 Norte 21 Noroeste 0 -- -- 51
2020-10-16 01:00:00 6.1 13 Norte 22 Noroeste 0 -- -- 51
2020-10-16 00:00:00 6.4 12 Norte 24 Norte 0 -- -- 51
2020-10-15 23:00:00 6.8 15 Norte 25 Norte 0 -- -- 51
2020-10-15 22:00:00 7.1 14 Norte 22 Norte 0 -- -- 50
2020-10-15 21:00:00 8.2 15 Norte 36 Norte 0 -- -- 45
2020-10-15 20:00:00 10 21 Norte 45 Norte 0 -- -- 38
2020-10-15 19:00:00 10.9 22 Norte 41 Norte 0 -- -- 38
2020-10-15 18:00:00 13.7 24 Nordeste 41 Nordeste 0 -- -- 35
2020-10-15 17:00:00 16 15 Norte 41 Norte 0 -- -- 31
2020-10-15 16:00:00 15.4 24 Norte 39 Norte 0 -- -- 31
2020-10-15 15:00:00 16 25 Nordeste 42 Nordeste 0 -- -- 32
2020-10-15 14:00:00 15.1 13 Sur 35 Sur 0 -- -- 57
2020-10-15 13:00:00 11.5 22 Sur 30 Sur 0 -- -- 66
2020-10-15 12:00:00 10.1 15 Sur 22 Sur 0 -- -- 74
2020-10-15 11:00:00 11 5 Norte 8 Norte 0 -- -- 71
2020-10-15 10:00:00 4.2 2 Nordeste 9 Sur 0 -- -- 99
2020-10-15 09:00:00 2.5 7 Sur 12 Sur 0 -- -- 100
2020-10-15 08:00:00 1.2 0 Calma 10 Nordeste 0 -- -- 100
2020-10-15 07:00:00 1.1 5 Norte 9 Norte 0 -- -- 99
2020-10-15 06:00:00 0.7 5 Norte 10 Norte 0 -- -- 100
2020-10-15 05:00:00 0.4 7 Norte 9 Norte 0 -- -- 98
2020-10-15 04:00:00 0.8 3 Norte 10 Norte 0 -- -- 98
2020-10-15 03:00:00 1.7 2 Nordeste 8 Norte 0 -- -- 98
2020-10-15 02:00:00 1.9 4 Norte 8 Nordeste 0 -- -- 97
2020-10-15 01:00:00 2.7 4 Norte 11 Nordeste 0 -- -- 97
2020-10-15 00:00:00 2.8 4 Norte 15 Nordeste 0 -- -- 98
2020-10-14 23:00:00 3.2 4 Nordeste 13 Norte 0 -- -- 98
2020-10-14 22:00:00 3.9 8 Norte 12 Nordeste 0 -- -- 97
2020-10-14 21:00:00 4.4 5 Norte 10 Nordeste 0 -- -- 97
2020-10-14 20:00:00 4.9 4 Nordeste 13 Nordeste 0 -- -- 96
2020-10-14 19:00:00 6 6 Nordeste 12 Noroeste 0 -- -- 92
2020-10-14 18:00:00 9.2 4 Norte 20 Norte 0.2 -- -- 80
2020-10-14 17:00:00 6.3 3 Sur 49 Norte 4.4 -- -- 93
2020-10-14 16:00:00 14.6 10 Nordeste 35 Sur 0 -- -- 48
2020-10-14 15:00:00 15.6 24 Sur 42 Sur 0 -- -- 53
2020-10-14 14:00:00 13.7 34 Sur 44 Sur 0 -- -- 60
2020-10-14 13:00:00 13.4 31 Sur 47 Sudeste 0 -- -- 62
2020-10-14 12:00:00 12.6 28 Sur 38 Sur 0 -- -- 64
2020-10-14 11:00:00 10.8 6 Sudeste 12 Sur 0 -- -- 70
2020-10-14 10:00:00 5.8 3 Norte 6 Nordeste 0 -- -- 96
2020-10-14 09:00:00 3.3 0 Calma 5 Norte 0 -- -- 97
2020-10-14 08:00:00 3.7 2 Nordeste 9 Norte 0 -- -- 94
2020-10-14 07:00:00 4.2 4 Norte 17 Sur 0 -- -- 91
2020-10-14 06:00:00 4.8 3 Nordeste 25 Sur 0 -- -- 90
2020-10-14 05:00:00 6.6 15 Sudeste 30 Sudeste 0 -- -- 85
2020-10-14 04:00:00 7.5 17 Sur 31 Sudeste 0 -- -- 80
2020-10-14 03:00:00 8 5 Sur 30 Sur 0 -- -- 79
2020-10-14 02:00:00 9.5 28 Sur 40 Sur 0 -- -- 71
2020-10-14 01:00:00 10.2 25 Sur 33 Sur 0 -- -- 70
2020-10-14 00:00:00 11.6 23 Sur 39 Sur 0 -- -- 63
2020-10-13 23:00:00 12.7 28 Sur 40 Sudeste 0 -- -- 58
2020-10-13 22:00:00 13.7 24 Sudeste 32 Sudeste 0 -- -- 56
2020-10-13 21:00:00 13.7 23 Sur 30 Sur 0 -- -- 56
2020-10-13 20:00:00 14.4 17 Sur 22 Sur 0 -- -- 56
2020-10-13 19:00:00 15.4 13 Sur 24 Sudeste 0 -- -- 57
2020-10-13 18:00:00 18.5 16 Sur 27 Sur 0 -- -- 45
2020-10-13 17:00:00 20.1 19 Sur 33 Sudeste 0 -- -- 40
2020-10-13 16:00:00 20.1 23 Sudeste 37 Sur 0 -- -- 39
2020-10-13 15:00:00 19.5 30 Sur 37 Sur 0 -- -- 42
2020-10-13 14:00:00 18.9 26 Sur 35 Sur 0 -- -- 46
2020-10-13 13:00:00 17.8 21 Sur 27 Sur 0 -- -- 49
2020-10-13 12:00:00 18.4 3 Nordeste 12 Nordeste 0 -- -- 45
2020-10-13 11:00:00 15 5 Nordeste 13 Norte 0 -- -- 51
2020-10-13 10:00:00 8.4 4 Norte 12 Norte 0 -- -- 75
2020-10-13 09:00:00 4.9 5 Norte 13 Norte 0 -- -- 86
2020-10-13 08:00:00 4.7 6 Nordeste 13 Norte 0 -- -- 81
2020-10-13 07:00:00 5.4 7 Norte 10 Nordeste 0 -- -- 77
2020-10-13 06:00:00 7.1 5 Nordeste 19 Norte 0 -- -- 72
2020-10-13 05:00:00 8.2 4 Norte 13 Norte 0 -- -- 65
2020-10-13 04:00:00 7.9 6 Nordeste 10 Este 0 -- -- 59
2020-10-13 03:00:00 8.4 4 Nordeste 5 Nordeste 0 -- -- 62
2020-10-13 02:00:00 9.8 2 Este 10 Nordeste 0 -- -- 47
2020-10-13 01:00:00 -- -- -- -- -- -- -- -- --
2020-10-13 00:00:00 10.4 6 Norte 11 Nordeste 0 -- -- 46
2020-10-12 23:00:00 10.9 7 Norte 20 Norte 0 -- -- 45
2020-10-12 22:00:00 10.9 6 Norte 17 Noroeste 0 -- -- 45
2020-10-12 21:00:00 11.1 4 Norte 21 Noroeste 0 -- -- 42
2020-10-12 20:00:00 11.3 9 Norte 31 Nordeste 0 -- -- 39
2020-10-12 19:00:00 13.2 11 Norte 21 Norte 0 -- -- 36
2020-10-12 18:00:00 -- -- -- -- -- -- -- -- --
2020-10-12 17:00:00 19.6 18 Norte 30 Norte 0 -- -- 25
2020-10-12 16:00:00 18.6 17 Norte 39 Norte 0 -- -- 24
2020-10-12 15:00:00 19.6 21 Nordeste 36 Nordeste 0 -- -- 25
2020-10-12 14:00:00 19.4 17 Norte 38 Norte 0 -- -- 25
2020-10-12 13:00:00 18.4 18 Norte 33 Norte 0 -- -- 25
2020-10-12 12:00:00 18 14 Nordeste 33 Nordeste 0 -- -- 29
2020-10-12 11:00:00 15.8 9 Norte 25 Norte 0 -- -- 35
2020-10-12 10:00:00 9 4 Norte 10 Nordeste 0 -- -- 63
2020-10-12 09:00:00 4.5 8 Norte 11 Nordeste 0 -- -- 81
2020-10-12 08:00:00 5.1 6 Norte 12 Norte 0 -- -- 75
2020-10-12 07:00:00 6.9 3 Nordeste 23 Nordeste 0 -- -- 65
2020-10-12 06:00:00 8.2 17 Norte 34 Norte 0 -- -- 61
2020-10-12 05:00:00 8.5 20 Norte 39 Norte 0 -- -- 58
2020-10-12 04:00:00 -- -- -- -- -- -- -- -- --
2020-10-12 03:00:00 9.3 17 Norte 40 Norte 0 -- -- 56
2020-10-12 02:00:00 9.7 19 Norte 47 Norte 0 -- -- 58
2020-10-12 01:00:00 10.1 17 Norte 38 Norte 0 -- -- 53
2020-10-12 00:00:00 10.4 25 Norte 57 Nordeste 0 -- -- 52
2020-10-11 23:00:00 11.2 32 Nordeste 54 Nordeste 0 -- -- 48
2020-10-11 22:00:00 11.4 27 Nordeste 46 Norte 0 -- -- 46
2020-10-11 21:00:00 -- -- -- -- -- -- -- -- --
2020-10-11 20:00:00 -- -- -- -- -- -- -- -- --
2020-10-11 19:00:00 13.1 27 Norte 54 Norte 0 -- -- 38
2020-10-11 18:00:00 15.5 37 Nordeste 63 Norte 0 -- -- 34
2020-10-11 17:00:00 16.2 31 Nordeste 52 Nordeste 0 -- -- 33
2020-10-11 16:00:00 17.9 27 Norte 51 Nordeste 0 -- -- 31
2020-10-11 15:00:00 17.1 25 Nordeste 46 Norte 0 -- -- 35
2020-10-11 14:00:00 17.7 26 Nordeste 55 Nordeste 0 -- -- 33
2020-10-11 13:00:00 18.1 23 Norte 59 Nordeste 0 -- -- 32
2020-10-11 12:00:00 17 25 Nordeste 47 Nordeste 0 -- -- 33
2020-10-11 11:00:00 16.2 21 Nordeste 40 Norte 0 -- -- 36
2020-10-11 10:00:00 13.4 20 Norte 44 Norte 0 -- -- 38
2020-10-11 09:00:00 10 26 Norte 41 Nordeste 0 -- -- 43
2020-10-11 08:00:00 9.4 26 Norte 38 Norte 0 -- -- 45
2020-10-11 07:00:00 7 10 Norte 28 Nordeste 0 -- -- 70
2020-10-11 06:00:00 6.1 4 Nordeste 11 Nordeste 0 -- -- 89
2020-10-11 05:00:00 7.1 0 Calma 24 Sur 0 -- -- 89
2020-10-11 04:00:00 8.7 17 Sur 23 Sur 0 -- -- 87
2020-10-11 03:00:00 10.3 5 Norte 26 Norte 0 -- -- 60
2020-10-11 02:00:00 11.3 13 Norte 28 Norte 0 -- -- 57
2020-10-11 01:00:00 11.3 10 Norte 33 Nordeste 0 -- -- 63
2020-10-11 00:00:00 10.9 17 Norte 31 Norte 0 -- -- 68
2020-10-10 23:00:00 9.6 15 Norte 25 Norte 0.2 -- -- 83
2020-10-10 22:00:00 10.1 20 Norte 31 Norte 0.2 -- -- 94
2020-10-10 21:00:00 11.9 6 Norte 12 Norte 0.2 -- -- 96
2020-10-10 20:00:00 13.6 4 Este 14 Sudeste 2 -- -- 94
2020-10-10 19:00:00 14.5 5 Nordeste 36 Sur 0.2 -- -- 91
2020-10-10 18:00:00 15.6 28 Sur 36 Sur 0 -- -- 84
2020-10-10 17:00:00 16.1 28 Sur 54 Sur 0 -- -- 82
2020-10-10 16:00:00 15.4 44 Sur 58 Sur 0 -- -- 86
2020-10-10 15:00:00 15.7 48 Sur 64 Sur 0 -- -- 85
2020-10-10 14:00:00 17 51 Sur 60 Sur 0 -- -- 80
2020-10-10 13:00:00 16.8 46 Sur 54 Sur 0 -- -- 81
2020-10-10 12:00:00 17 31 Sur 39 Sur 0 -- -- 82
2020-10-10 11:00:00 15 29 Sur 35 Sur 0 -- -- 96
2020-10-10 10:00:00 14.7 5 Sudeste 17 Sudeste 0 -- -- 95
2020-10-10 09:00:00 13.4 0 Calma 5 Norte 0 -- -- 97
2020-10-10 08:00:00 12.9 4 Norte 7 Nordeste 0 -- -- 97
2020-10-10 07:00:00 13.1 3 Oeste 6 Oeste 0 -- -- 98
2020-10-10 06:00:00 12.7 4 Norte 6 Nordeste 0 -- -- 97
2020-10-10 05:00:00 13 3 Noroeste 6 Norte 0 -- -- 97
2020-10-10 04:00:00 13 3 Nordeste 7 Nordeste 0 -- -- 95
2020-10-10 03:00:00 13.9 4 Norte 6 Norte 0 -- -- 92
2020-10-10 02:00:00 14.3 3 Norte 6 Norte 0 -- -- 90
2020-10-10 01:00:00 14.7 3 Sudeste 10 Sudeste 0 -- -- 89
2020-10-10 00:00:00 15.1 6 Sur 15 Sur 0 -- -- 89
2020-10-09 23:00:00 15.9 4 Sur 6 Sur 0 -- -- 84
2020-10-09 22:00:00 16.9 2 Sur 8 Sur 0 -- -- 79
2020-10-09 21:00:00 18.1 8 Sur 12 Sur 0 -- -- 73
2020-10-09 20:00:00 19.6 8 Sur 23 Sur 0 -- -- 68
2020-10-09 19:00:00 20.9 15 Sur 27 Sur 0 -- -- 63
2020-10-09 18:00:00 23.2 18 Sur 31 Sudeste 0 -- -- 57
2020-10-09 17:00:00 25.1 22 Sudeste 32 Sur 0 -- -- 52
2020-10-09 16:00:00 25.7 24 Sudeste 35 Sur 0 -- -- 49
2020-10-09 15:00:00 25 24 Sudeste 35 Sudeste 0 -- -- 51
2020-10-09 14:00:00 23.3 28 Sur 36 Sur 0 -- -- 56
2020-10-09 13:00:00 24.8 15 Sur 24 Sur 0 -- -- 51
2020-10-09 12:00:00 24.4 3 Este 8 Nordeste 0 -- -- 51
2020-10-09 11:00:00 19.9 4 Nordeste 7 Nordeste 0 -- -- 63
2020-10-09 10:00:00 15.3 3 Norte 10 Norte 0 -- -- 96
2020-10-09 09:00:00 11.1 2 Norte 8 Norte 0 -- -- 100
2020-10-09 08:00:00 10 5 Norte 8 Norte 0 -- -- 100
2020-10-09 07:00:00 10.3 3 Norte 8 Noroeste 0 -- -- 99
2020-10-09 06:00:00 10.8 6 Norte 8 Norte 0 -- -- 100
2020-10-09 05:00:00 10.6 6 Norte 10 Norte 0 -- -- 100
2020-10-09 04:00:00 11.1 3 Norte 9 Norte 0 -- -- 98
2020-10-09 03:00:00 10.8 4 Nordeste 5 Nordeste 0 -- -- 98
2020-10-09 02:00:00 11 5 Nordeste 9 Nordeste 0 -- -- 97
2020-10-09 01:00:00 11.7 4 Norte 8 Norte 0 -- -- 97
2020-10-09 00:00:00 12.5 4 Norte 11 Norte 0 -- -- 93
2020-10-08 23:00:00 13.9 5 Norte 8 Norte 0 -- -- 88
2020-10-08 22:00:00 14.8 3 Este 6 Este 0 -- -- 83
2020-10-08 21:00:00 15.7 2 Nordeste 8 Sur 0 -- -- 80
2020-10-08 20:00:00 17.4 5 Sur 21 Sur 0 -- -- 72
2020-10-08 19:00:00 19.5 18 Sur 25 Sur 0 -- -- 64
2020-10-08 18:00:00 21.7 21 Sur 31 Sudeste 0 -- -- 56
2020-10-08 17:00:00 23.3 21 Sur 37 Sur 0 -- -- 52
2020-10-08 16:00:00 20.6 31 Sur 41 Sur 0 -- -- 60
2020-10-08 15:00:00 21.6 30 Sur 41 Sur 0 -- -- 57
2020-10-08 14:00:00 21.9 26 Sur 36 Sur 0 -- -- 56
2020-10-08 13:00:00 21 25 Sur 34 Sur 0 -- -- 60
2020-10-08 12:00:00 19.8 18 Sur 26 Sur 0 -- -- 62
2020-10-08 11:00:00 19.3 3 Nordeste 6 Sudeste 0 -- -- 64
2020-10-08 10:00:00 10.7 3 Sur 5 Sur 0 -- -- 100
2020-10-08 09:00:00 8.8 3 Nordeste 7 Noroeste 0 -- -- 100
2020-10-08 08:00:00 8.4 5 Norte 6 Norte 0 -- -- 99
2020-10-08 07:00:00 9.1 4 Nordeste 5 Nordeste 0 -- -- 98
2020-10-08 06:00:00 10.1 2 Sudeste 5 Norte 0 -- -- 99
2020-10-08 05:00:00 10.3 2 Oeste 9 Norte 0 -- -- 98
2020-10-08 04:00:00 10.4 4 Norte 6 Norte 0 -- -- 97
2020-10-08 03:00:00 11.9 0 Calma 10 Sur 0 -- -- 92
2020-10-08 02:00:00 13.8 5 Sur 22 Sur 0 -- -- 85
2020-10-08 01:00:00 14.4 14 Sur 27 Sur 0 -- -- 83
2020-10-08 00:00:00 15 17 Sur 26 Sur 0 -- -- 81
2020-10-07 23:00:00 15.8 16 Sur 23 Sur 0 -- -- 78
2020-10-07 22:00:00 16.6 4 Sur 25 Sur 0 -- -- 75
2020-10-07 21:00:00 18.6 22 Sur 30 Sur 0 -- -- 66
2020-10-07 20:00:00 19.9 17 Sur 27 Sudeste 0 -- -- 63
2020-10-07 19:00:00 21.3 14 Sudeste 31 Sudeste 0 -- -- 62
2020-10-07 18:00:00 21.7 24 Sur 36 Sur 0 -- -- 60
2020-10-07 17:00:00 23.3 26 Sur 40 Sur 0 -- -- 55
2020-10-07 16:00:00 22.6 35 Sur 42 Sur 0 -- -- 58
2020-10-07 15:00:00 21.5 29 Sur 42 Sur 0 -- -- 60
2020-10-07 14:00:00 20.8 32 Sur 42 Sur 0 -- -- 61
2020-10-07 13:00:00 22 23 Sur 29 Sudeste 0 -- -- 58
2020-10-07 12:00:00 19.2 10 Sur 14 Sur 0 -- -- 64
2020-10-07 11:00:00 19.4 0 Calma 7 Norte 0 -- -- 63
2020-10-07 10:00:00 12.9 0 Calma 7 Noroeste 0 -- -- 99
2020-10-07 09:00:00 9.2 4 Norte 6 Norte 0 -- -- 100
2020-10-07 08:00:00 8.7 3 Nordeste 8 Noroeste 0 -- -- 99
2020-10-07 07:00:00 8.7 5 Norte 7 Norte 0 -- -- 99
2020-10-07 06:00:00 9.3 4 Norte 6 Noroeste 0 -- -- 99
2020-10-07 05:00:00 10 0 Calma 9 Norte 0 -- -- 99
2020-10-07 04:00:00 9.7 9 Norte 10 Norte 0 -- -- 98
2020-10-07 03:00:00 11 3 Noroeste 10 Norte 0 -- -- 97
2020-10-07 02:00:00 10.9 5 Norte 6 Norte 0 -- -- 94
2020-10-07 01:00:00 12.2 3 Noroeste 6 Norte 0 -- -- 92
2020-10-07 00:00:00 12.7 3 Sudeste 6 Nordeste 0 -- -- 90
2020-10-06 23:00:00 13 6 Norte 8 Nordeste 0 -- -- 88
2020-10-06 22:00:00 13.9 8 Norte 10 Norte 0 -- -- 84
2020-10-06 21:00:00 15.6 7 Norte 11 Nordeste 0 -- -- 77
2020-10-06 20:00:00 17.7 4 Sur 14 Sur 0 -- -- 67
2020-10-06 19:00:00 19.2 11 Sur 21 Sur 0 -- -- 60
2020-10-06 18:00:00 21.3 19 Sur 28 Sur 0 -- -- 53
2020-10-06 17:00:00 21.2 22 Sur 34 Sudeste 0 -- -- 52
2020-10-06 16:00:00 22.9 23 Sudeste 33 Sur 0 -- -- 47
2020-10-06 15:00:00 23 24 Sudeste 37 Sur 0 -- -- 45
2020-10-06 14:00:00 21.6 19 Sur 29 Sur 0 -- -- 46
2020-10-06 13:00:00 20.2 8 Sur 17 Sudeste 0 -- -- 44
2020-10-06 12:00:00 18.9 4 Norte 11 Nordeste 0 -- -- 48
2020-10-06 11:00:00 15.7 5 Norte 17 Nordeste 0 -- -- 55
2020-10-06 10:00:00 10.2 8 Norte 11 Norte 0 -- -- 82
2020-10-06 09:00:00 5 6 Norte 16 Nordeste 0 -- -- 97
2020-10-06 08:00:00 4.5 8 Norte 12 Norte 0 -- -- 98
2020-10-06 07:00:00 5 6 Nordeste 9 Norte 0 -- -- 96
2020-10-06 06:00:00 5.5 5 Norte 7 Norte 0 -- -- 96
2020-10-06 05:00:00 5.9 5 Norte 10 Norte 0 -- -- 94
2020-10-06 04:00:00 5.5 7 Norte 11 Noroeste 0 -- -- 94
2020-10-06 03:00:00 5.7 3 Norte 10 Norte 0 -- -- 94
2020-10-06 02:00:00 5.9 6 Norte 8 Nordeste 0 -- -- 93
2020-10-06 01:00:00 6.5 5 Norte 6 Nordeste 0 -- -- 90
2020-10-06 00:00:00 7.8 0 Calma 6 Norte 0 -- -- 86
2020-10-05 23:00:00 8.4 5 Norte 7 Norte 0 -- -- 81
2020-10-05 22:00:00 10.5 3 Nordeste 10 Sur 0 -- -- 73
2020-10-05 21:00:00 12.4 4 Sur 9 Nordeste 0 -- -- 61
2020-10-05 20:00:00 14.5 3 Este 18 Sudoeste 0 -- -- 50
2020-10-05 19:00:00 16.3 4 Sur 15 Sur 0 -- -- 45
2020-10-05 18:00:00 20 8 Sur 26 Sur 0 -- -- 35
2020-10-05 17:00:00 20.7 17 Sur 23 Sur 0 -- -- 36
2020-10-05 16:00:00 20.2 14 Sur 28 Sur 0 -- -- 38
2020-10-05 15:00:00 20 18 Sudeste 34 Sur 0 -- -- 39
2020-10-05 14:00:00 19 26 Sur 36 Sur 0 -- -- 45
2020-10-05 13:00:00 17.4 17 Sur 24 Sur 0 -- -- 52
2020-10-05 12:00:00 16.5 4 Norte 9 Nordeste 0 -- -- 50
2020-10-05 11:00:00 14.5 5 Nordeste 13 Nordeste 0 -- -- 58
2020-10-05 10:00:00 8.6 4 Norte 10 Nordeste 0 -- -- 94
2020-10-05 09:00:00 2.9 5 Norte 10 Norte 0 -- -- 99
2020-10-05 08:00:00 3.2 4 Noroeste 11 Norte 0 -- -- 99
2020-10-05 07:00:00 3.6 4 Norte 11 Nordeste 0 -- -- 97
2020-10-05 06:00:00 4.3 5 Norte 15 Nordeste 0 -- -- 98
2020-10-05 05:00:00 3.6 6 Norte 8 Noroeste 0 -- -- 97
2020-10-05 04:00:00 4.3 3 Norte 8 Norte 0 -- -- 96
2020-10-05 03:00:00 5.3 2 Este 6 Nordeste 0 -- -- 94
2020-10-05 02:00:00 6.4 2 Nordeste 9 Nordeste 0 -- -- 89
2020-10-05 01:00:00 6.3 7 Norte 10 Norte 0 -- -- 88
2020-10-05 00:00:00 8.2 6 Sur 10 Norte 0 -- -- 80
2020-10-04 23:00:00 9.1 5 Norte 17 Sudoeste 0 -- -- 74
2020-10-04 22:00:00 11.1 7 Sur 15 Sudoeste 0 -- -- 63
2020-10-04 21:00:00 11.8 10 Sur 23 Sur 0 -- -- 63
2020-10-04 20:00:00 12.5 17 Sur 32 Sur 0 -- -- 62
2020-10-04 19:00:00 13.5 10 Sur 25 Sudeste 0 -- -- 57
2020-10-04 18:00:00 15.6 14 Sur 27 Sur 0 -- -- 52
2020-10-04 17:00:00 14.8 11 Sur 26 Sur 0 -- -- 52
2020-10-04 16:00:00 15.8 10 Sudeste 27 Sur 0 -- -- 54
2020-10-04 15:00:00 19.4 9 Sudoeste 29 Sudoeste 0 -- -- 43
2020-10-04 14:00:00 16 8 Oeste 38 Sudoeste 0 -- -- 50
2020-10-04 13:00:00 15.5 21 Sur 39 Sur 0 -- -- 48
2020-10-04 12:00:00 15.5 15 Sudeste 27 Sur 0 -- -- 60
2020-10-04 11:00:00 14.1 3 Sudeste 8 Norte 0 -- -- 62
2020-10-04 10:00:00 9 4 Norte 7 Norte 0 -- -- 94
2020-10-04 09:00:00 4.6 4 Norte 6 Norte 0 -- -- 99
2020-10-04 08:00:00 4.4 5 Norte 7 Norte 0 -- -- 99
2020-10-04 07:00:00 4.2 4 Norte 5 Norte 0 -- -- 98
2020-10-04 06:00:00 4.4 3 Norte 5 Nordeste 0 -- -- 98
2020-10-04 05:00:00 5.1 0 Calma 3 Nordeste 0 -- -- 98
2020-10-04 04:00:00 5.2 3 Norte 5 Nordeste 0 -- -- 95
2020-10-04 03:00:00 6.4 0 Calma 7 Norte 0 -- -- 94
2020-10-04 02:00:00 7.2 3 Sudeste 8 Nordeste 0 -- -- 87
2020-10-04 01:00:00 7.2 5 Norte 8 Norte 0 -- -- 87
2020-10-04 00:00:00 7.7 4 Nordeste 8 Norte 0 -- -- 84
2020-10-03 23:00:00 8.1 5 Norte 11 Norte 0 -- -- 81
2020-10-03 22:00:00 7.9 7 Norte 11 Norte 0 -- -- 80
2020-10-03 21:00:00 10 8 Nordeste 17 Este 0 -- -- 66
2020-10-03 20:00:00 11.1 5 Sudeste 22 Norte 0 -- -- 60
2020-10-03 19:00:00 11.9 7 Oeste 23 Sudoeste 0 -- -- 58
2020-10-03 18:00:00 12.4 12 Sudoeste 37 Sudoeste 0 -- -- 57
2020-10-03 17:00:00 12 8 Sudoeste 27 Sur 0 -- -- 58
2020-10-03 16:00:00 12.1 11 Sur 34 Sudoeste 0 -- -- 59
2020-10-03 15:00:00 11.7 4 Sur 27 Sudoeste 0 -- -- 60
2020-10-03 14:00:00 13.3 4 Norte 14 Sur 0 -- -- 57
2020-10-03 13:00:00 11.8 6 Sur 19 Sur 0 -- -- 66
2020-10-03 12:00:00 10.8 4 Sur 12 Sur 0 -- -- 77
2020-10-03 11:00:00 8.6 12 Sur 27 Sur 0 -- -- 87
2020-10-03 10:00:00 7.3 5 Sur 14 Sur 0 -- -- 97
2020-10-03 09:00:00 5.9 2 Noroeste 10 Norte 0.2 -- -- 99
2020-10-03 08:00:00 5.1 3 Noroeste 12 Norte 0 -- -- 99
2020-10-03 07:00:00 5.3 5 Nordeste 9 Norte 0 -- -- 98
2020-10-03 06:00:00 5.3 3 Nordeste 9 Nordeste 0 -- -- 98
2020-10-03 05:00:00 5.5 4 Nordeste 12 Este 0 -- -- 98
2020-10-03 04:00:00 5 5 Norte 8 Norte 0 -- -- 99
2020-10-03 03:00:00 5.3 4 Sur 10 Sudeste 0 -- -- 99
2020-10-03 02:00:00 4.6 3 Norte 6 Nordeste 0 -- -- 99
2020-10-03 01:00:00 4.7 0 Calma 6 Sur 0 -- -- 99
2020-10-03 00:00:00 4.6 0 Calma 10 Nordeste 0 -- -- 99
2020-10-02 23:00:00 5 5 Norte 13 Nordeste 0 -- -- 98
2020-10-02 22:00:00 5.6 5 Nordeste 10 Oeste 0 -- -- 95
2020-10-02 21:00:00 7.1 5 Noroeste 30 Sur 0.8 -- -- 91
2020-10-02 20:00:00 9.2 20 Sur 30 Sur 0 -- -- 90
2020-10-02 19:00:00 9.6 16 Sur 42 Sur 0 -- -- 88
2020-10-02 18:00:00 9.8 16 Sur 41 Sur 0 -- -- 81
2020-10-02 17:00:00 9.6 30 Sur 41 Sudeste 0 -- -- 85
2020-10-02 16:00:00 10 13 Sudeste 35 Oeste 0.2 -- -- 82
2020-10-02 15:00:00 11.7 18 Sur 27 Sur 2.2 -- -- 94
2020-10-02 14:00:00 11.9 10 Sur 32 Sur 3.4 -- -- 93
2020-10-02 13:00:00 12.9 22 Sur 37 Sur 3.2 -- -- 96
2020-10-02 12:00:00 12.6 26 Sur 48 Sudeste 3.4 -- -- 95
2020-10-02 11:00:00 12.7 28 Sur 48 Sur 2 -- -- 94
2020-10-02 10:00:00 12.4 21 Sur 39 Sur 2.8 -- -- 94
2020-10-02 09:00:00 12.5 23 Sur 34 Sur 1.8 -- -- 92
2020-10-02 08:00:00 12.8 20 Sur 35 Sur 1.6 -- -- 92
2020-10-02 07:00:00 13.3 16 Sur 31 Sur 0.2 -- -- 89
2020-10-02 06:00:00 14.4 21 Sur 30 Sur 0 -- -- 79
2020-10-02 05:00:00 14.5 8 Sur 23 Sur 0 -- -- 73
2020-10-02 04:00:00 14.9 14 Sur 26 Sur 0 -- -- 69
2020-10-02 03:00:00 15 22 Sur 28 Sur 0 -- -- 67
2020-10-02 02:00:00 15.4 24 Sur 31 Sur 0 -- -- 65
2020-10-02 01:00:00 16 24 Sudeste 36 Sur 0 -- -- 60
2020-10-02 00:00:00 15.7 16 Sur 32 Sudeste 0 -- -- 59
2020-10-01 23:00:00 14.4 4 Nordeste 9 Sur 0 -- -- 58
2020-10-01 22:00:00 16.2 5 Sudoeste 25 Sur 0 -- -- 54
2020-10-01 21:00:00 16 10 Sur 20 Sudeste 0 -- -- 54
2020-10-01 20:00:00 18.9 6 Sur 26 Sur 0 -- -- 43
2020-10-01 19:00:00 20.6 15 Sur 35 Sur 0 -- -- 41
2020-10-01 18:00:00 22.6 19 Sur 32 Sur 0 -- -- 41
2020-10-01 17:00:00 22.5 19 Sur 31 Sur 0 -- -- 51
2020-10-01 16:00:00 23.1 23 Sur 37 Sudeste 0 -- -- 48
2020-10-01 15:00:00 25.3 19 Sudeste 33 Sur 0 -- -- 40
2020-10-01 14:00:00 24 26 Sur 40 Sur 0 -- -- 44
2020-10-01 13:00:00 23.4 26 Sur 35 Sur 0 -- -- 42
2020-10-01 12:00:00 21.1 2 Nordeste 10 Nordeste 0 -- -- 47
2020-10-01 11:00:00 17.9 6 Nordeste 9 Nordeste 0 -- -- 56
2020-10-01 10:00:00 12.5 4 Norte 10 Norte 0 -- -- 77
2020-10-01 09:00:00 8.4 4 Noroeste 8 Norte 0 -- -- 94
2020-10-01 08:00:00 7.5 4 Norte 6 Norte 0 -- -- 96
2020-10-01 07:00:00 8.8 4 Norte 6 Norte 0 -- -- 90
2020-10-01 06:00:00 9.4 3 Noroeste 9 Norte 0 -- -- 88
2020-10-01 05:00:00 7.7 6 Norte 9 Norte 0 -- -- 94
2020-10-01 04:00:00 8.7 7 Norte 9 Norte 0 -- -- 91
2020-10-01 03:00:00 8.4 6 Norte 8 Norte 0 -- -- 93
2020-10-01 02:00:00 9.3 5 Nordeste 7 Norte 0 -- -- 89
2020-10-01 01:00:00 10 5 Norte 7 Norte 0 -- -- 86
2020-10-01 00:00:00 11.2 5 Nordeste 6 Norte 0 -- -- 80